createdAt,value
2018-10-09T00:01:18.646Z,10.20
2018-10-09T00:03:46.750Z,10.20
2018-10-09T00:06:14.912Z,10.20
2018-10-09T00:08:43.058Z,10.20
2018-10-09T00:11:11.144Z,10.20
2018-10-09T00:13:39.451Z,10.20
2018-10-09T00:16:07.755Z,10.10
2018-10-09T00:18:35.831Z,10.00
2018-10-09T00:21:03.902Z,10.00
2018-10-09T00:23:33.098Z,9.90
2018-10-09T00:26:01.474Z,10.00
2018-10-09T00:28:29.493Z,9.90
2018-10-09T00:30:57.578Z,9.90
2018-10-09T00:33:25.607Z,9.90
2018-10-09T00:35:53.688Z,9.80
2018-10-09T00:38:21.763Z,9.80
2018-10-09T00:40:49.825Z,9.70
2018-10-09T00:43:17.917Z,9.70
2018-10-09T00:45:46.011Z,9.60
2018-10-09T00:48:14.069Z,9.70
2018-10-09T00:50:42.246Z,9.60
2018-10-09T00:53:10.459Z,9.60
2018-10-09T00:55:38.486Z,9.60
2018-10-09T00:58:06.592Z,9.50
2018-10-09T01:00:34.690Z,9.50
2018-10-09T01:03:02.765Z,9.50
2018-10-09T01:05:30.986Z,9.50
2018-10-09T01:07:59.148Z,9.40
2018-10-09T01:10:27.216Z,9.40
2018-10-09T01:12:55.294Z,9.40
2018-10-09T01:15:23.380Z,9.50
2018-10-09T01:17:51.492Z,9.40
2018-10-09T01:20:25.884Z,9.40
2018-10-09T01:22:53.980Z,9.40
2018-10-09T01:25:22.088Z,9.40
2018-10-09T01:27:50.479Z,9.40
2018-10-09T01:30:18.624Z,9.40
2018-10-09T01:32:46.671Z,9.50
2018-10-09T01:35:15.341Z,9.50
2018-10-09T01:37:43.762Z,9.50
2018-10-09T01:40:11.805Z,9.40
2018-10-09T01:42:39.869Z,9.40
2018-10-09T01:45:07.931Z,9.30
2018-10-09T01:47:35.999Z,9.20
2018-10-09T01:50:04.275Z,9.30
2018-10-09T01:52:32.577Z,9.20
2018-10-09T01:55:00.618Z,9.20
2018-10-09T01:57:28.703Z,9.30
2018-10-09T01:59:56.949Z,9.30
2018-10-09T02:02:25.030Z,9.40
2018-10-09T02:04:53.081Z,9.40
2018-10-09T02:07:21.152Z,9.40
2018-10-09T02:09:49.250Z,9.40
2018-10-09T02:12:17.531Z,9.30
2018-10-09T02:14:45.604Z,9.30
2018-10-09T02:17:13.711Z,9.30
2018-10-09T02:19:41.761Z,9.30
2018-10-09T02:22:09.838Z,9.30
2018-10-09T02:24:37.897Z,9.30
2018-10-09T02:27:06.255Z,9.30
2018-10-09T02:29:34.318Z,9.30
2018-10-09T02:32:02.430Z,9.20
2018-10-09T02:34:30.500Z,9.20
2018-10-09T02:36:58.790Z,9.20
2018-10-09T02:39:26.864Z,9.10
2018-10-09T02:41:55.010Z,9.10
2018-10-09T02:44:23.064Z,9.20
2018-10-09T02:46:51.357Z,9.10
2018-10-09T02:49:19.412Z,9.10
2018-10-09T02:51:47.471Z,9.10
2018-10-09T02:54:15.603Z,9.20
2018-10-09T02:56:43.657Z,9.30
2018-10-09T02:59:11.767Z,9.30
2018-10-09T03:01:39.845Z,9.30
2018-10-09T03:04:07.930Z,9.30
2018-10-09T03:06:36.027Z,9.30
2018-10-09T03:09:05.160Z,9.20
2018-10-09T03:11:33.278Z,9.30
2018-10-09T03:14:01.397Z,9.30
2018-10-09T03:16:29.465Z,9.30
2018-10-09T03:18:57.554Z,9.30
2018-10-09T03:21:25.597Z,9.30
2018-10-09T03:23:53.730Z,9.30
2018-10-09T03:26:21.791Z,9.40
2018-10-09T03:28:49.861Z,9.30
2018-10-09T03:31:17.908Z,9.30
2018-10-09T03:33:46.228Z,9.30
2018-10-09T03:36:14.339Z,9.20
2018-10-09T03:38:42.458Z,9.20
2018-10-09T03:41:10.550Z,9.20
2018-10-09T03:43:38.740Z,9.20
2018-10-09T03:46:06.978Z,9.20
2018-10-09T03:48:35.409Z,9.20
2018-10-09T03:51:03.479Z,9.20
2018-10-09T03:53:31.554Z,9.20
2018-10-09T03:55:59.655Z,9.20
2018-10-09T03:58:27.749Z,9.20
2018-10-09T04:00:55.822Z,9.10
2018-10-09T04:03:23.988Z,9.10
2018-10-09T04:05:52.064Z,9.10
2018-10-09T04:08:20.160Z,9.10
2018-10-09T04:10:48.294Z,9.10
2018-10-09T04:13:16.375Z,9.10
2018-10-09T04:15:44.552Z,9.10
2018-10-09T04:18:12.650Z,9.10
2018-10-09T04:20:40.728Z,9.10
2018-10-09T04:23:08.843Z,9.10
2018-10-09T04:25:36.927Z,9.00
2018-10-09T04:28:05.058Z,8.90
2018-10-09T04:30:33.128Z,8.90
2018-10-09T04:33:01.201Z,8.80
2018-10-09T04:35:29.348Z,8.80
2018-10-09T04:37:57.398Z,8.80
2018-10-09T04:40:25.469Z,8.80
2018-10-09T04:42:54.057Z,8.80
2018-10-09T04:45:22.181Z,8.80
2018-10-09T04:47:50.212Z,8.80
2018-10-09T04:50:18.315Z,8.80
2018-10-09T04:52:46.345Z,8.80
2018-10-09T04:55:15.145Z,8.70
2018-10-09T04:57:43.189Z,8.70
2018-10-09T05:00:11.285Z,8.70
2018-10-09T05:02:39.301Z,8.70
2018-10-09T05:05:07.373Z,8.70
2018-10-09T05:07:35.421Z,8.70
2018-10-09T05:10:03.514Z,8.80
2018-10-09T05:12:31.596Z,8.80
2018-10-09T05:14:59.969Z,8.80
2018-10-09T05:17:28.242Z,8.80
2018-10-09T05:19:56.497Z,8.70
2018-10-09T05:22:25.754Z,8.70
2018-10-09T05:24:53.818Z,8.60
2018-10-09T05:27:21.882Z,8.70
2018-10-09T05:29:49.993Z,8.70
2018-10-09T05:32:18.114Z,8.80
2018-10-09T05:34:46.204Z,8.90
2018-10-09T05:37:14.264Z,8.90
2018-10-09T05:39:42.429Z,9.00
2018-10-09T05:42:10.558Z,8.90
2018-10-09T05:44:38.651Z,9.00
2018-10-09T05:47:06.694Z,8.90
2018-10-09T05:49:34.784Z,8.90
2018-10-09T05:52:02.837Z,8.90
2018-10-09T05:54:30.933Z,8.90
2018-10-09T05:56:58.961Z,8.80
2018-10-09T05:59:27.046Z,8.90
2018-10-09T06:01:55.093Z,8.90
2018-10-09T06:04:23.173Z,9.00
2018-10-09T06:06:51.290Z,9.00
2018-10-09T06:09:19.362Z,9.10
2018-10-09T06:11:47.384Z,9.10
2018-10-09T06:14:15.619Z,9.20
2018-10-09T06:16:43.681Z,9.20
2018-10-09T06:19:11.751Z,9.30
2018-10-09T06:21:39.854Z,9.30
2018-10-09T06:24:07.933Z,9.40
2018-10-09T06:26:36.017Z,9.50
2018-10-09T06:29:04.081Z,9.50
2018-10-09T06:31:32.170Z,9.60
2018-10-09T06:34:00.275Z,9.70
2018-10-09T06:36:28.304Z,9.80
2018-10-09T06:38:56.348Z,9.80
2018-10-09T06:41:24.410Z,9.90
2018-10-09T06:43:52.469Z,10.00
2018-10-09T06:46:20.775Z,10.10
2018-10-09T06:48:49.586Z,10.30
2018-10-09T06:51:17.939Z,10.30
2018-10-09T06:53:46.128Z,10.40
2018-10-09T06:56:14.201Z,10.50
2018-10-09T06:58:42.324Z,10.60
2018-10-09T07:01:10.383Z,10.70
2018-10-09T07:03:38.551Z,10.70
2018-10-09T07:06:06.614Z,10.80
2018-10-09T07:08:34.675Z,10.90
2018-10-09T07:11:02.835Z,11.00
2018-10-09T07:13:30.859Z,11.00
2018-10-09T07:15:58.957Z,11.10
2018-10-09T07:18:27.011Z,11.20
2018-10-09T07:20:55.107Z,11.20
2018-10-09T07:23:23.171Z,11.30
2018-10-09T07:25:51.248Z,11.30
2018-10-09T07:28:19.303Z,11.40
2018-10-09T07:30:47.393Z,11.50
2018-10-09T07:35:49.825Z,11.60
2018-10-09T07:38:24.739Z,11.70
2018-10-09T07:40:52.931Z,11.60
2018-10-09T07:43:21.014Z,11.90
2018-10-09T07:45:49.098Z,12.00
2018-10-09T07:48:17.170Z,12.10
2018-10-09T07:50:45.252Z,12.10
2018-10-09T07:53:13.306Z,12.10
2018-10-09T07:55:41.430Z,12.30
2018-10-09T07:58:09.503Z,12.40
2018-10-09T08:00:37.602Z,12.50
2018-10-09T08:03:05.646Z,12.50
2018-10-09T08:05:33.725Z,12.60
2018-10-09T08:08:01.805Z,12.60
2018-10-09T08:10:29.975Z,12.50
2018-10-09T08:12:57.979Z,12.40
2018-10-09T08:15:26.179Z,12.40
2018-10-09T08:17:54.298Z,12.50
2018-10-09T08:20:22.356Z,12.60
2018-10-09T08:22:50.491Z,12.60
2018-10-09T08:25:18.546Z,12.50
2018-10-09T08:27:46.650Z,12.60
2018-10-09T08:30:14.714Z,12.70
2018-10-09T08:32:42.803Z,12.70
2018-10-09T08:35:10.989Z,12.80
2018-10-09T08:37:39.073Z,12.90
2018-10-09T08:40:07.197Z,13.00
2018-10-09T08:42:35.310Z,13.20
2018-10-09T08:45:03.386Z,13.40
2018-10-09T08:47:31.477Z,13.60
2018-10-09T08:49:59.547Z,13.80
2018-10-09T08:52:27.631Z,14.00
2018-10-09T08:54:55.732Z,14.10
2018-10-09T08:57:23.880Z,14.20
2018-10-09T08:59:51.883Z,14.30
2018-10-09T09:02:19.983Z,14.30
2018-10-09T09:04:48.048Z,14.30
2018-10-09T09:07:16.155Z,14.50
2018-10-09T09:09:44.320Z,14.50
2018-10-09T09:12:12.347Z,14.50
2018-10-09T09:14:40.409Z,14.50
2018-10-09T09:17:08.528Z,14.50
2018-10-09T09:19:36.584Z,14.50
2018-10-09T09:22:04.671Z,14.50
2018-10-09T09:24:32.794Z,14.60
2018-10-09T09:27:01.047Z,14.70
2018-10-09T09:29:29.045Z,14.80
2018-10-09T09:31:57.180Z,14.80
2018-10-09T09:34:25.243Z,14.90
2018-10-09T09:36:53.339Z,15.00
2018-10-09T09:39:21.374Z,15.00
2018-10-09T09:41:49.448Z,14.90
2018-10-09T09:44:17.496Z,14.90
2018-10-09T09:46:45.561Z,15.00
2018-10-09T09:49:13.650Z,15.20
2018-10-09T09:51:41.746Z,15.30
2018-10-09T09:54:09.813Z,15.50
2018-10-09T09:56:37.895Z,15.60
2018-10-09T09:59:06.058Z,15.60
2018-10-09T10:01:39.481Z,15.80
2018-10-09T10:04:07.546Z,16.00
2018-10-09T10:06:35.722Z,16.00
2018-10-09T10:09:04.629Z,16.10
2018-10-09T10:11:32.734Z,16.30
2018-10-09T10:14:00.855Z,16.40
2018-10-09T10:16:28.948Z,16.60
2018-10-09T10:18:57.019Z,16.80
2018-10-09T10:21:25.141Z,17.00
2018-10-09T10:23:53.601Z,17.10
2018-10-09T10:26:21.687Z,17.20
2018-10-09T10:28:50.077Z,17.20
2018-10-09T10:31:18.186Z,17.20
2018-10-09T10:33:46.293Z,17.30
2018-10-09T10:36:14.359Z,17.50
2018-10-09T10:38:42.430Z,17.80
2018-10-09T10:41:10.509Z,18.00
2018-10-09T10:43:38.587Z,18.10
2018-10-09T10:46:06.759Z,18.00
2018-10-09T10:48:34.842Z,18.30
2018-10-09T10:51:02.878Z,18.50
2018-10-09T10:53:30.961Z,18.80
2018-10-09T10:55:59.019Z,19.10
2018-10-09T10:58:27.143Z,19.20
2018-10-09T11:00:55.213Z,19.40
2018-10-09T11:03:23.324Z,19.60
2018-10-09T11:05:51.389Z,19.60
2018-10-09T11:08:19.530Z,19.80
2018-10-09T11:10:47.557Z,20.00
2018-10-09T11:13:15.683Z,19.90
2018-10-09T11:15:43.779Z,19.80
2018-10-09T11:18:11.861Z,19.90
2018-10-09T11:20:39.938Z,19.70
2018-10-09T11:23:08.022Z,19.80
2018-10-09T11:25:36.092Z,19.80
2018-10-09T11:28:04.223Z,19.70
2018-10-09T11:30:32.546Z,19.70
2018-10-09T11:33:00.836Z,19.70
2018-10-09T11:35:28.886Z,19.90
2018-10-09T11:37:56.985Z,19.90
2018-10-09T11:40:25.139Z,20.00
2018-10-09T11:42:53.370Z,20.00
2018-10-09T11:45:21.441Z,19.90
2018-10-09T11:47:49.546Z,20.20
2018-10-09T11:50:17.604Z,20.10
2018-10-09T11:52:45.697Z,20.50
2018-10-09T11:55:13.746Z,20.70
2018-10-09T11:57:41.838Z,20.60
2018-10-09T12:00:09.987Z,20.70
2018-10-09T12:02:38.090Z,20.60
2018-10-09T12:05:06.194Z,20.90
2018-10-09T12:07:34.229Z,20.80
2018-10-09T12:10:02.304Z,20.70
2018-10-09T12:12:30.370Z,20.80
2018-10-09T12:14:58.654Z,20.70
2018-10-09T12:17:26.776Z,20.80
2018-10-09T12:19:54.879Z,21.00
2018-10-09T12:22:22.967Z,21.00
2018-10-09T12:24:51.241Z,20.90
2018-10-09T12:27:19.399Z,21.10
2018-10-09T12:29:47.575Z,21.20
2018-10-09T12:32:15.693Z,21.20
2018-10-09T12:34:43.807Z,21.10
2018-10-09T12:37:11.870Z,21.10
2018-10-09T12:39:39.973Z,21.10
2018-10-09T12:42:08.115Z,21.10
2018-10-09T12:44:36.217Z,21.20
2018-10-09T12:47:04.322Z,21.00
2018-10-09T12:49:32.502Z,21.20
2018-10-09T12:52:00.561Z,21.30
2018-10-09T12:54:28.644Z,21.20
2018-10-09T12:56:56.775Z,21.10
2018-10-09T12:59:24.820Z,20.90
2018-10-09T13:01:52.930Z,20.90
2018-10-09T13:04:21.100Z,21.10
2018-10-09T13:06:49.339Z,21.30
2018-10-09T13:09:17.589Z,21.20
2018-10-09T13:11:45.636Z,21.30
2018-10-09T13:14:13.742Z,21.20
2018-10-09T13:16:42.820Z,21.20
2018-10-09T13:19:10.885Z,21.10
2018-10-09T13:21:39.859Z,21.10
2018-10-09T13:24:07.653Z,21.20
2018-10-09T13:26:35.721Z,21.10
2018-10-09T13:29:04.053Z,21.10
2018-10-09T13:31:32.094Z,21.10
2018-10-09T13:34:00.228Z,21.00
2018-10-09T13:36:28.254Z,21.10
2018-10-09T13:38:56.338Z,21.10
2018-10-09T13:41:24.386Z,21.20
2018-10-09T13:43:52.502Z,21.30
2018-10-09T13:46:20.578Z,21.40
2018-10-09T13:48:48.606Z,21.60
2018-10-09T13:51:16.691Z,21.90
2018-10-09T13:53:44.737Z,22.00
2018-10-09T13:56:12.855Z,22.00
2018-10-09T13:58:40.889Z,22.00
2018-10-09T14:01:08.954Z,22.00
2018-10-09T14:03:36.992Z,22.10
2018-10-09T14:06:05.102Z,21.90
2018-10-09T14:08:33.101Z,22.10
2018-10-09T14:11:01.228Z,22.00
2018-10-09T14:13:29.255Z,22.00
2018-10-09T14:15:57.371Z,21.90
2018-10-09T14:18:25.395Z,21.80
2018-10-09T14:20:53.476Z,21.30
2018-10-09T14:23:21.510Z,21.40
2018-10-09T14:25:49.752Z,21.30
2018-10-09T14:28:17.845Z,21.20
2018-10-09T14:30:45.937Z,21.20
2018-10-09T14:33:13.964Z,21.10
2018-10-09T14:35:42.021Z,20.90
2018-10-09T14:38:10.086Z,20.90
2018-10-09T14:40:38.198Z,20.80
2018-10-09T14:43:06.225Z,20.80
2018-10-09T14:45:34.336Z,20.80
2018-10-09T14:48:02.363Z,21.10
2018-10-09T14:50:30.469Z,21.40
2018-10-09T14:52:58.503Z,21.80
2018-10-09T14:55:26.761Z,22.60
2018-10-09T14:57:54.882Z,23.50
2018-10-09T15:00:23.030Z,24.70
2018-10-09T15:02:51.094Z,25.70
2018-10-09T15:05:19.173Z,26.30
2018-10-09T15:07:47.204Z,26.50
2018-10-09T15:10:15.305Z,26.80
2018-10-09T15:12:43.347Z,26.90
2018-10-09T15:15:11.465Z,26.80
2018-10-09T15:17:39.521Z,26.30
2018-10-09T15:20:08.687Z,26.10
2018-10-09T15:22:36.725Z,25.80
2018-10-09T15:25:04.966Z,26.40
2018-10-09T15:27:33.045Z,27.00
2018-10-09T15:30:01.413Z,26.80
2018-10-09T15:32:29.497Z,26.80
2018-10-09T15:34:57.577Z,26.50
2018-10-09T15:37:25.698Z,26.60
2018-10-09T15:39:53.766Z,26.50
2018-10-09T15:42:21.853Z,25.90
2018-10-09T15:44:49.971Z,26.10
2018-10-09T15:47:18.243Z,26.00
2018-10-09T15:49:46.209Z,25.80
2018-10-09T15:52:14.310Z,26.00
2018-10-09T15:54:42.380Z,25.70
2018-10-09T15:57:10.480Z,25.50
2018-10-09T15:59:38.555Z,25.60
2018-10-09T16:02:06.735Z,25.00
2018-10-09T16:04:34.807Z,24.70
2018-10-09T16:07:02.891Z,24.50
2018-10-09T16:09:30.955Z,24.00
2018-10-09T16:11:59.053Z,23.40
2018-10-09T16:14:27.151Z,22.90
2018-10-09T16:16:55.244Z,22.40
2018-10-09T16:19:23.325Z,21.90
2018-10-09T16:21:51.412Z,21.50
2018-10-09T16:24:19.606Z,21.10
2018-10-09T16:26:47.688Z,20.60
2018-10-09T16:29:15.778Z,20.30
2018-10-09T16:31:43.847Z,19.80
2018-10-09T16:34:11.892Z,19.50
2018-10-09T16:36:40.046Z,19.30
2018-10-09T16:39:08.679Z,19.10
2018-10-09T16:41:36.897Z,18.90
2018-10-09T16:44:04.947Z,18.70
2018-10-09T16:46:33.134Z,18.50
2018-10-09T16:49:01.215Z,18.40
2018-10-09T16:51:29.395Z,18.30
2018-10-09T16:53:57.483Z,18.10
2018-10-09T16:56:25.625Z,18.00
2018-10-09T16:58:53.848Z,17.80
2018-10-09T17:01:21.964Z,17.60
2018-10-09T17:03:50.034Z,17.50
2018-10-09T17:06:18.170Z,17.40
2018-10-09T17:08:46.834Z,17.30
2018-10-09T17:11:14.926Z,17.10
2018-10-09T17:13:43.305Z,16.90
2018-10-09T17:16:11.610Z,16.90
2018-10-09T17:18:39.745Z,16.80
2018-10-09T17:21:07.805Z,16.70
2018-10-09T17:23:35.971Z,16.70
2018-10-09T17:26:04.087Z,16.60
2018-10-09T17:28:32.337Z,16.50
2018-10-09T17:31:00.331Z,16.40
2018-10-09T17:33:28.551Z,16.30
2018-10-09T17:35:56.602Z,16.30
2018-10-09T17:38:24.757Z,16.20
2018-10-09T17:40:52.806Z,16.20
2018-10-09T17:43:20.876Z,16.10
2018-10-09T17:45:48.936Z,16.00
2018-10-09T17:48:17.094Z,16.00
2018-10-09T17:50:45.144Z,16.00
2018-10-09T17:53:13.707Z,16.00
2018-10-09T17:55:41.701Z,15.90
2018-10-09T17:58:12.005Z,15.90
2018-10-09T18:00:41.799Z,15.80
2018-10-09T18:03:14.321Z,15.80
2018-10-09T18:05:53.948Z,15.80
2018-10-09T18:08:27.032Z,15.70
2018-10-09T18:11:07.062Z,15.70
2018-10-09T18:13:44.146Z,15.70
2018-10-09T18:16:18.557Z,15.60
2018-10-09T18:18:51.672Z,15.60
2018-10-09T18:21:23.684Z,15.60
2018-10-09T18:24:00.194Z,15.50
2018-10-09T18:26:30.929Z,15.50
2018-10-09T18:29:05.363Z,15.50
2018-10-09T18:31:35.571Z,15.50
2018-10-09T18:34:10.609Z,15.40
2018-10-09T18:36:58.742Z,15.40
2018-10-09T18:39:27.087Z,15.30
2018-10-09T18:41:58.591Z,15.40
2018-10-09T18:44:29.824Z,15.40
2018-10-09T18:49:42.958Z,15.30
2018-10-09T18:57:49.563Z,15.20
2018-10-09T19:00:25.437Z,15.20
2018-10-09T19:03:01.997Z,15.20
2018-10-09T19:05:30.762Z,15.10
2018-10-09T19:08:05.100Z,15.10
2018-10-09T19:10:37.485Z,15.10
2018-10-09T19:13:10.669Z,15.00
2018-10-09T19:15:44.269Z,15.00
2018-10-09T19:18:20.058Z,15.00
2018-10-09T19:21:07.654Z,15.00
2018-10-09T19:23:59.161Z,15.00
2018-10-09T19:26:38.714Z,15.00
2018-10-09T19:29:12.316Z,15.00
2018-10-09T19:31:45.828Z,14.90
2018-10-09T19:34:27.118Z,14.90
2018-10-09T19:39:48.005Z,14.80
2018-10-09T19:42:27.571Z,14.80
2018-10-09T19:45:05.568Z,14.80
2018-10-09T19:47:41.122Z,14.80
2018-10-09T19:50:14.300Z,14.80
2018-10-09T19:52:52.478Z,14.80
2018-10-09T19:55:30.213Z,14.80
2018-10-09T19:58:05.745Z,14.80
2018-10-09T20:00:39.698Z,14.80
2018-10-09T20:03:23.084Z,14.70
2018-10-09T20:06:01.913Z,14.70
2018-10-09T20:08:35.728Z,14.70
2018-10-09T20:11:19.542Z,14.70
2018-10-09T20:13:55.546Z,14.60
2018-10-09T20:16:29.476Z,14.60
2018-10-09T20:19:04.599Z,14.60
2018-10-09T20:21:56.004Z,14.60
2018-10-09T20:24:31.841Z,14.50
2018-10-09T20:27:04.437Z,14.50
2018-10-09T20:29:41.828Z,14.50
2018-10-09T20:32:18.526Z,14.50
2018-10-09T20:34:53.953Z,14.50
2018-10-09T20:37:37.412Z,14.40
2018-10-09T20:40:18.356Z,14.40
2018-10-09T20:42:52.138Z,14.30
2018-10-09T20:45:24.948Z,14.30
2018-10-09T20:48:07.631Z,14.20
2018-10-09T20:50:42.210Z,14.20
2018-10-09T20:53:13.463Z,14.10
2018-10-09T20:56:52.756Z,13.90
2018-10-09T20:59:23.141Z,13.80
2018-10-09T21:04:39.117Z,13.70
2018-10-09T21:07:14.481Z,13.60
2018-10-09T21:09:47.936Z,13.50
2018-10-09T21:12:28.039Z,13.50
2018-10-09T21:15:08.494Z,13.40
2018-10-09T21:17:39.027Z,13.40
2018-10-09T21:20:17.815Z,13.40
2018-10-09T21:22:50.133Z,13.40
2018-10-09T21:25:28.472Z,13.40
2018-10-09T21:28:00.589Z,13.50
2018-10-09T21:30:35.294Z,13.50
2018-10-09T21:33:05.072Z,13.50
2018-10-09T21:35:41.551Z,13.50
2018-10-09T21:38:17.109Z,13.50
2018-10-09T21:40:50.107Z,13.50
2018-10-09T21:43:18.785Z,13.50
2018-10-09T21:45:46.869Z,13.50
2018-10-09T21:48:15.094Z,13.50
2018-10-09T21:50:43.403Z,13.50
2018-10-09T21:53:12.519Z,13.50
2018-10-09T21:55:40.619Z,13.60
2018-10-09T21:58:08.639Z,13.60
2018-10-09T22:00:42.297Z,13.60
2018-10-09T22:03:10.352Z,13.60
2018-10-09T22:05:38.463Z,13.60
2018-10-09T22:08:06.545Z,13.60
2018-10-09T22:10:34.661Z,13.60
2018-10-09T22:13:02.703Z,13.60
2018-10-09T22:15:30.793Z,13.60
2018-10-09T22:18:26.474Z,13.60
2018-10-09T22:20:59.787Z,13.60
2018-10-09T22:23:27.826Z,13.50
2018-10-09T22:25:55.913Z,13.50
2018-10-09T22:28:23.981Z,13.50
2018-10-09T22:30:52.071Z,13.50
2018-10-09T22:33:20.093Z,13.50
2018-10-09T22:35:48.165Z,13.50
2018-10-09T22:38:16.370Z,13.40
2018-10-09T22:40:45.877Z,13.40
2018-10-09T22:43:13.930Z,13.40
2018-10-09T22:45:42.082Z,13.40
2018-10-09T22:48:10.149Z,13.50
2018-10-09T22:50:38.229Z,13.40
2018-10-09T22:53:06.389Z,13.30
2018-10-09T22:55:34.478Z,13.30
2018-10-09T22:58:02.588Z,13.30
2018-10-09T23:00:30.705Z,13.30
2018-10-09T23:02:58.743Z,13.20
2018-10-09T23:05:26.811Z,13.20
2018-10-09T23:07:54.880Z,13.10
2018-10-09T23:10:22.977Z,13.10
2018-10-09T23:12:51.042Z,13.10
2018-10-09T23:15:19.186Z,13.10
2018-10-09T23:17:47.228Z,13.10
2018-10-09T23:20:15.327Z,13.10
2018-10-09T23:22:43.414Z,13.10
2018-10-09T23:25:11.770Z,13.10
2018-10-09T23:27:39.818Z,13.00
2018-10-09T23:30:08.258Z,13.00
2018-10-09T23:32:36.347Z,13.00
2018-10-09T23:35:04.385Z,13.00
2018-10-09T23:37:32.514Z,13.00
2018-10-09T23:40:00.581Z,12.90
2018-10-09T23:42:28.984Z,12.90
2018-10-09T23:44:57.018Z,12.90
2018-10-09T23:47:25.121Z,12.90
2018-10-09T23:49:53.207Z,12.90
2018-10-09T23:52:21.284Z,12.90
2018-10-09T23:54:49.368Z,12.90
2018-10-09T23:57:17.489Z,12.90
2018-10-09T23:59:45.524Z,12.80
